Time;durP1;ratioP1;P1;durP2;ratioP2;P2;SDS_P1;SDS_P2;PMS_P1;PMS_P2;Temp;Humidity;BMP_temperature;BMP_pressure;BME280_temperature;BME280_humidity;BME280_pressure;Samples;Min_cycle;Max_cycle;Signal;HPM_P1;HPM_P2
2023/04/05 00:01:32;;;;;;;10.15;5.63;;;;;;;2.37;38.43;99733.97;5084698;28;20059;-71
2023/04/05 00:04:01;;;;;;;6.85;4.32;;;;;;;2.35;38.34;99738.34;5084933;28;20131;-70
2023/04/05 00:06:30;;;;;;;8.25;5.95;;;;;;;1.14;38.61;99552.88;5085103;28;20119;-71
2023/04/05 00:08:58;;;;;;;11.07;6.45;;;;;;;2.33;38.64;99739.25;5085156;28;20049;-70
2023/04/05 00:11:26;;;;;;;6.72;5.30;;;;;;;2.30;38.73;99734.09;5084664;28;20040;-71
2023/04/05 00:13:52;;;;;;;8.38;5.38;;;;;;;2.28;38.63;99731.50;5085107;28;20049;-70
2023/04/05 00:16:20;;;;;;;9.20;5.35;;;;;;;2.28;38.72;99731.50;5084868;28;20211;-70
2023/04/05 00:18:50;;;;;;;5.18;4.15;;;;;;;2.01;38.70;99684.84;5084577;28;20040;-70
2023/04/05 00:21:17;;;;;;;6.55;4.50;;;;;;;2.25;38.84;99731.53;5085024;28;20106;-71
2023/04/05 00:23:45;;;;;;;8.15;5.15;;;;;;;2.03;38.89;99706.59;5084545;28;20292;-70
2023/04/05 00:26:12;;;;;;;7.45;5.95;;;;;;;2.19;38.74;99735.09;5088320;28;20075;-70
2023/04/05 00:28:38;;;;;;;10.30;5.50;;;;;;;2.15;38.79;99729.94;5088073;28;20094;-71
2023/04/05 00:31:05;;;;;;;6.72;4.60;;;;;;;2.14;38.85;99725.59;5088519;28;20048;-70
2023/04/05 00:33:32;;;;;;;7.25;5.28;;;;;;;2.03;38.86;99706.59;5088649;28;20044;-70
2023/04/05 00:36:08;;;;;;;7.68;4.68;;;;;;;2.07;39.73;99727.44;5088311;28;20115;-71
2023/04/05 00:38:35;;;;;;;8.63;5.15;;;;;;;2.08;39.07;99723.09;5087960;28;20108;-71
2023/04/05 00:41:03;;;;;;;5.20;4.18;;;;;;;2.03;39.20;99728.38;5087829;28;20044;-71
2023/04/05 00:43:29;;;;;;;7.15;4.75;;;;;;;2.01;39.09;99724.06;5087741;28;20084;-71
2023/04/05 00:45:56;;;;;;;6.07;4.75;;;;;;;2.01;39.11;99716.22;5088176;28;20036;-69
2023/04/05 00:48:23;;;;;;;7.25;5.50;;;;;;;0.08;38.96;99393.44;5088254;28;20228;-70
2023/04/05 00:50:51;;;;;;;6.97;5.40;;;;;;;1.39;38.96;99618.66;5087346;28;20297;-70
2023/04/05 00:53:19;;;;;;;7.75;5.00;;;;;;;1.35;39.15;99646.56;5087166;28;20127;-70
2023/04/05 00:55:47;;;;;;;8.48;4.65;;;;;;;1.95;39.16;99724.16;5087686;28;20063;-70
2023/04/05 00:58:18;;;;;;;8.43;5.47;;;;;;;1.92;39.13;99721.59;5087438;28;20044;-70
2023/04/05 01:00:52;;;;;;;6.60;5.15;;;;;;;1.87;39.26;99712.06;5087980;28;20037;-70
2023/04/05 01:03:24;;;;;;;6.95;4.97;;;;;;;1.87;39.18;99717.28;5087975;28;20177;-67
2023/04/05 01:05:55;;;;;;;7.40;4.68;;;;;;;1.84;39.71;99719.06;5087851;28;20193;-69
2023/04/05 01:08:32;;;;;;;8.48;6.30;;;;;;;1.81;39.92;99717.38;5087312;28;20109;-70
2023/04/05 01:11:04;;;;;;;6.78;5.47;;;;;;;1.77;39.74;99717.44;5087793;28;20048;-70
2023/04/05 01:13:32;;;;;;;6.68;4.82;;;;;;;1.74;39.34;99717.47;5087195;28;20112;-71
2023/04/05 01:15:59;;;;;;;6.35;4.85;;;;;;;1.74;39.32;99714.88;5086303;28;20040;-71
2023/04/05 01:18:27;;;;;;;7.32;4.68;;;;;;;1.74;39.42;99717.47;5087222;28;20053;-70
2023/04/05 01:20:59;;;;;;;6.32;5.35;;;;;;;1.69;39.85;99720.16;5086980;28;20048;-71
2023/04/05 01:23:41;;;;;;;7.72;5.18;;;;;;;1.68;40.65;99712.34;5087260;28;20290;-71
2023/04/05 01:26:46;;;;;;;6.70;4.20;;;;;;;1.63;40.99;99708.91;5086862;28;20041;-71
2023/04/05 01:29:42;;;;;;;11.05;5.75;;;;;;;1.62;40.91;99720.25;5086613;28;20036;-71
2023/04/05 01:32:18;;;;;;;8.18;4.65;;;;;;;1.57;40.33;99715.06;5087065;28;20048;-71
2023/04/05 01:34:53;;;;;;;7.70;5.15;;;;;;;1.58;40.29;99722.00;5087032;28;20047;-72
2023/04/05 01:37:26;;;;;;;7.10;4.55;;;;;;;1.57;39.50;99707.22;5086667;28;20078;-71
2023/04/05 01:39:53;;;;;;;7.07;4.82;;;;;;;1.53;39.94;99709.00;5087137;28;20090;-70
2023/04/05 01:42:24;;;;;;;7.35;5.07;;;;;;;1.52;40.32;99711.63;5085685;28;20075;-71
2023/04/05 01:44:53;;;;;;;5.82;4.68;;;;;;;1.51;39.92;99710.78;5085652;28;20090;-70
2023/04/05 01:47:20;;;;;;;10.35;5.80;;;;;;;1.49;39.99;99709.94;5086403;28;20352;-70
2023/04/05 01:49:47;;;;;;;7.53;5.93;;;;;;;1.46;40.15;99709.97;5086450;28;20040;-70
2023/04/05 01:52:14;;;;;;;5.15;4.50;;;;;;;1.45;40.08;99707.38;5086456;28;20048;-70
2023/04/05 01:54:42;;;;;;;6.20;4.50;;;;;;;1.44;40.08;99713.50;5086568;28;20048;-70
2023/04/05 01:57:09;;;;;;;6.32;5.35;;;;;;;1.16;40.26;99661.59;5086834;28;20071;-70
2023/04/05 01:59:35;;;;;;;5.97;4.63;;;;;;;1.21;40.12;99672.84;5086339;28;20056;-70
2023/04/05 02:02:03;;;;;;;7.90;5.10;;;;;;;1.38;40.25;99710.94;5086985;28;20040;-70
2023/04/05 02:04:30;;;;;;;7.55;4.78;;;;;;;1.37;40.33;99712.69;5086200;28;20177;-71
2023/04/05 02:06:57;;;;;;;8.32;4.28;;;;;;;1.38;40.25;99716.19;5086081;28;20103;-70
2023/04/05 02:09:24;;;;;;;7.82;5.00;;;;;;;1.14;40.34;99672.94;5085251;28;20041;-70
2023/04/05 02:11:50;;;;;;;9.38;5.47;;;;;;;1.35;40.40;99714.47;5086251;28;20083;-70
2023/04/05 02:14:17;;;;;;;7.43;5.47;;;;;;;1.16;40.33;99673.78;5086602;28;20052;-70
2023/04/05 02:16:44;;;;;;;6.80;4.97;;;;;;;1.34;40.34;99717.97;5086450;28;20040;-71
2023/04/05 02:19:14;;;;;;;7.78;5.32;;;;;;;1.34;40.58;99709.25;5086051;28;20044;-71
2023/04/05 02:21:41;;;;;;;6.05;4.78;;;;;;;1.32;40.36;99709.28;5086441;28;20044;-71
2023/04/05 02:24:08;;;;;;;8.50;5.43;;;;;;;1.05;40.42;99657.41;5086143;28;20052;-71
2023/04/05 02:26:35;;;;;;;7.20;4.88;;;;;;;1.33;40.64;99697.09;5085720;28;20036;-71
2023/04/05 02:29:01;;;;;;;8.57;5.32;;;;;;;1.32;40.41;99695.34;5086059;28;20044;-71
2023/04/05 02:31:28;;;;;;;9.00;4.93;;;;;;;1.31;40.50;99697.09;5086045;28;20044;-71
2023/04/05 02:33:56;;;;;;;5.50;4.28;;;;;;;1.30;40.63;99699.75;5085707;28;20044;-70
2023/04/05 02:36:27;;;;;;;6.80;4.97;;;;;;;1.03;40.78;99661.78;5085732;28;20071;-71
2023/04/05 02:38:53;;;;;;;7.63;5.30;;;;;;;1.24;40.60;99696.31;5085613;28;20090;-71
2023/04/05 02:41:22;;;;;;;8.40;5.30;;;;;;;1.23;40.70;99693.72;5085382;28;20072;-70
2023/04/05 02:43:49;;;;;;;6.53;5.10;;;;;;;1.24;40.77;99701.53;5085847;28;20049;-70
2023/04/05 02:46:16;;;;;;;7.28;5.65;;;;;;;1.23;40.70;99693.72;5086049;28;20044;-70
2023/04/05 02:48:42;;;;;;;5.93;4.55;;;;;;;1.24;40.54;99703.28;5084773;28;20052;-70
2023/04/05 02:51:09;;;;;;;7.40;4.97;;;;;;;1.23;40.90;99702.41;5085979;28;20052;-71
2023/04/05 02:53:37;;;;;;;7.13;4.88;;;;;;;1.20;40.78;99694.63;5085722;28;20245;-70
2023/04/05 02:56:04;;;;;;;8.63;5.25;;;;;;;1.19;40.88;99689.41;5085072;28;20042;-72
2023/04/05 02:58:31;;;;;;;6.95;4.88;;;;;;;1.18;40.99;99690.31;5084556;28;20051;-71
2023/04/05 03:01:00;;;;;;;8.30;5.50;;;;;;;1.17;40.99;99693.78;5085633;28;20041;-71
2023/04/05 03:03:28;;;;;;;7.20;5.15;;;;;;;1.17;40.92;99691.19;5085606;28;20070;-72
2023/04/05 03:06:00;;;;;;;6.10;4.70;;;;;;;1.15;41.24;99693.81;5084351;28;20114;-71
2023/04/05 03:08:27;;;;;;;7.13;4.40;;;;;;;1.14;40.93;99691.22;5085525;28;20040;-71
2023/04/05 03:10:55;;;;;;;5.85;4.68;;;;;;;1.14;41.05;99693.84;5085560;28;20052;-71
2023/04/05 03:13:22;;;;;;;7.15;4.75;;;;;;;1.11;40.95;99688.66;5085254;28;20056;-71
2023/04/05 03:15:48;;;;;;;7.45;5.00;;;;;;;1.11;41.13;99693.88;5085446;28;20071;-71
2023/04/05 03:18:15;;;;;;;8.00;5.80;;;;;;;1.09;41.00;99690.41;5085469;28;20046;-70
2023/04/05 03:20:44;;;;;;;7.95;5.07;;;;;;;1.06;41.11;99690.44;5085350;28;20206;-70
2023/04/05 03:23:11;;;;;;;6.93;4.85;;;;;;;1.05;41.25;99688.72;5084256;28;20296;-71
2023/04/05 03:25:39;;;;;;;6.45;4.78;;;;;;;1.06;41.07;99685.22;5085419;28;20052;-71
2023/04/05 03:28:08;;;;;;;5.95;4.63;;;;;;;1.05;41.04;99679.16;5085178;28;20040;-70
2023/04/05 03:30:35;;;;;;;6.50;4.97;;;;;;;1.05;41.10;99684.38;5085581;28;20043;-71
2023/04/05 03:33:02;;;;;;;6.90;4.82;;;;;;;1.03;41.25;99680.91;5085322;28;20071;-71
2023/04/05 03:35:30;;;;;;;7.03;4.97;;;;;;;1.01;41.29;99679.19;5085129;28;20067;-71
2023/04/05 03:37:57;;;;;;;7.63;5.18;;;;;;;0.99;41.23;99684.44;5085078;28;20036;-72
2023/04/05 03:40:24;;;;;;;7.60;4.28;;;;;;;0.73;41.23;99658.63;5085230;28;20259;-70
2023/04/05 03:42:51;;;;;;;6.55;4.50;;;;;;;0.94;41.17;99689.69;5084823;28;20041;-70
2023/04/05 03:45:20;;;;;;;5.80;4.68;;;;;;;-0.12;41.37;99510.91;5084559;28;20051;-70
2023/04/05 03:47:46;;;;;;;6.05;4.13;;;;;;;0.92;41.27;99688.84;5085375;28;20041;-70
2023/04/05 03:50:13;;;;;;;9.50;4.93;;;;;;;0.93;41.38;99701.03;5084851;28;20312;-70
2023/04/05 03:52:40;;;;;;;7.32;4.93;;;;;;;-0.51;41.36;99452.22;5085092;28;20289;-70
2023/04/05 03:55:08;;;;;;;7.68;4.82;;;;;;;0.93;41.38;99698.41;5084816;28;20059;-70
2023/04/05 03:57:36;;;;;;;5.47;4.32;;;;;;;0.92;41.35;99696.69;5084799;28;20351;-71
2023/04/05 04:00:12;;;;;;;6.25;4.88;;;;;;;0.91;41.25;99686.25;5086936;28;20044;-71
2023/04/05 04:02:43;;;;;;;6.63;4.68;;;;;;;0.67;41.43;99660.44;5088665;28;20102;-72
2023/04/05 04:05:10;;;;;;;7.35;5.15;;;;;;;0.86;41.50;99698.50;5088568;28;20044;-72
2023/04/05 04:07:37;;;;;;;7.95;5.07;;;;;;;0.86;41.39;99693.28;5088345;28;20064;-71
2023/04/05 04:10:04;;;;;;;6.10;4.55;;;;;;;0.87;41.42;99695.88;5088589;28;20060;-70
2023/04/05 04:12:31;;;;;;;7.22;5.43;;;;;;;-0.33;41.37;99485.91;5088944;28;20052;-70
2023/04/05 04:14:58;;;;;;;6.15;4.35;;;;;;;0.90;41.41;99694.97;5089157;28;20047;-70
2023/04/05 04:17:28;;;;;;;6.53;4.53;;;;;;;0.90;41.71;99688.00;5088463;28;20048;-71
2023/04/05 04:19:57;;;;;;;7.38;4.40;;;;;;;0.89;41.54;99694.09;5088221;28;20047;-70
2023/04/05 04:22:25;;;;;;;6.68;4.60;;;;;;;0.87;41.63;99690.66;5088435;28;20301;-70
2023/04/05 04:24:52;;;;;;;7.68;4.82;;;;;;;0.84;41.69;99693.28;5088692;28;20048;-70
2023/04/05 04:27:19;;;;;;;6.10;4.18;;;;;;;0.84;41.63;99689.81;5088626;28;20036;-70
2023/04/05 04:29:46;;;;;;;6.70;5.22;;;;;;;0.38;41.76;99612.03;5088020;28;20036;-70
2023/04/05 04:32:14;;;;;;;8.27;4.57;;;;;;;0.85;41.63;99686.31;5088296;28;20119;-70
2023/04/05 04:34:43;;;;;;;11.88;5.28;;;;;;;0.83;41.47;99685.47;5087185;28;20064;-70
2023/04/05 04:37:16;;;;;;;6.82;3.85;;;;;;;0.59;42.05;99650.94;5088215;28;20036;-69
2023/04/05 04:39:46;;;;;;;7.97;4.55;;;;;;;0.60;41.48;99651.81;5087886;28;20055;-70
2023/04/05 04:42:13;;;;;;;6.18;4.85;;;;;;;0.80;41.66;99694.22;5087634;28;20056;-70
2023/04/05 04:44:42;;;;;;;7.53;5.10;;;;;;;0.79;41.82;99695.09;5088406;28;20040;-70
2023/04/05 04:47:12;;;;;;;6.63;4.88;;;;;;;0.78;41.83;99689.88;5087728;28;20044;-70
2023/04/05 04:49:40;;;;;;;8.65;5.60;;;;;;;0.54;41.75;99670.13;5086889;28;20046;-70
2023/04/05 04:52:07;;;;;;;6.65;4.97;;;;;;;0.77;41.72;99688.16;5088221;28;20051;-70
2023/04/05 04:54:36;;;;;;;7.95;5.60;;;;;;;0.55;41.97;99656.19;5086694;28;20041;-70
2023/04/05 04:57:03;;;;;;;10.60;5.07;;;;;;;0.76;42.02;99695.13;5087724;28;20292;-69
2023/04/05 04:59:30;;;;;;;6.63;5.25;;;;;;;0.74;41.76;99689.06;5086513;28;20285;-69
2023/04/05 05:01:56;;;;;;;9.32;4.90;;;;;;;0.76;41.70;99691.66;5086971;28;20052;-70
2023/04/05 05:04:23;;;;;;;9.00;5.63;;;;;;;0.76;41.76;99695.13;5086521;28;20046;-70
2023/04/05 05:06:51;;;;;;;9.10;5.82;;;;;;;0.36;41.91;99625.97;5087250;28;20063;-71
2023/04/05 05:09:18;;;;;;;8.02;5.50;;;;;;;0.77;41.95;99690.75;5087025;28;20044;-70
2023/04/05 05:11:46;;;;;;;8.48;5.00;;;;;;;0.75;42.16;99682.94;5086807;28;20085;-69
2023/04/05 05:14:12;;;;;;;7.00;4.85;;;;;;;0.75;41.91;99685.56;5087725;28;20042;-69
2023/04/05 05:16:39;;;;;;;9.63;5.47;;;;;;;0.77;41.86;99685.53;5087781;28;20058;-70
2023/04/05 05:19:06;;;;;;;5.82;4.38;;;;;;;0.78;42.02;99690.75;5087621;28;20040;-69
2023/04/05 05:21:33;;;;;;;7.47;5.03;;;;;;;0.81;41.95;99682.88;5087598;28;20043;-69
2023/04/05 05:23:59;;;;;;;6.95;4.55;;;;;;;0.82;41.90;99691.59;5087173;28;20052;-69
2023/04/05 05:26:26;;;;;;;8.27;4.60;;;;;;;0.84;42.01;99689.81;5086876;28;20093;-69
2023/04/05 05:28:55;;;;;;;6.97;4.80;;;;;;;0.64;41.94;99653.50;5087129;28;20050;-69
2023/04/05 05:31:21;;;;;;;8.65;5.55;;;;;;;0.87;41.78;99693.25;5087424;28;20149;-70
2023/04/05 05:33:49;;;;;;;6.38;4.72;;;;;;;0.90;41.96;99692.38;5085973;28;20307;-69
2023/04/05 05:36:16;;;;;;;11.63;4.90;;;;;;;0.90;41.86;99690.63;5087012;28;20246;-69
2023/04/05 05:38:42;;;;;;;8.13;5.63;;;;;;;0.96;41.91;99691.44;5087069;28;20059;-69
2023/04/05 05:41:09;;;;;;;7.85;5.32;;;;;;;1.00;41.55;99688.78;5086374;28;20060;-69
2023/04/05 05:43:36;;;;;;;7.03;5.05;;;;;;;1.04;41.68;99687.00;5086747;28;20051;-69
2023/04/05 05:46:04;;;;;;;7.97;4.85;;;;;;;1.08;41.60;99681.72;5086772;28;20304;-69
2023/04/05 05:48:32;;;;;;;7.10;5.10;;;;;;;1.13;41.70;99689.50;5086621;28;20033;-69
2023/04/05 05:51:01;;;;;;;7.50;4.97;;;;;;;1.16;41.60;99679.00;5086576;28;20048;-69
2023/04/05 05:53:28;;;;;;;5.85;4.18;;;;;;;1.20;41.44;99693.75;5086377;28;20082;-69
2023/04/05 05:55:55;;;;;;;8.90;4.85;;;;;;;1.24;41.36;99682.41;5086185;28;20231;-69
2023/04/05 05:58:22;;;;;;;6.05;4.47;;;;;;;1.28;41.30;99684.09;5086862;28;20048;-70
2023/04/05 06:00:50;;;;;;;7.22;4.78;;;;;;;1.33;41.18;99678.81;5086329;28;20154;-69
2023/04/05 06:03:20;;;;;;;8.82;5.20;;;;;;;1.41;41.32;99674.34;5085905;28;20044;-70
2023/04/05 06:05:51;;;;;;;7.75;4.68;;;;;;;0.79;41.28;99585.50;5086058;28;20048;-70
2023/04/05 06:08:18;;;;;;;7.25;4.32;;;;;;;1.57;40.88;99679.34;5086022;28;20204;-70
2023/04/05 06:10:44;;;;;;;7.20;4.95;;;;;;;1.70;40.83;99673.97;5086613;28;20293;-70
2023/04/05 06:13:11;;;;;;;7.80;4.97;;;;;;;1.80;40.64;99672.97;5085991;28;20071;-70
2023/04/05 06:15:37;;;;;;;5.18;4.43;;;;;;;1.94;40.36;99668.41;5086542;28;20044;-70
2023/04/05 06:18:04;;;;;;;7.28;4.82;;;;;;;2.17;40.22;99666.28;5086528;28;20275;-70
2023/04/05 06:20:32;;;;;;;11.48;5.15;;;;;;;2.40;40.04;99662.41;5085917;28;20132;-71
2023/04/05 06:22:59;;;;;;;5.70;4.80;;;;;;;2.47;39.58;99671.88;5085802;28;20036;-70
2023/04/05 06:25:26;;;;;;;7.57;4.72;;;;;;;2.67;39.60;99674.16;5085994;28;20098;-70
2023/04/05 06:27:53;;;;;;;8.23;4.35;;;;;;;2.79;39.18;99763.78;5085944;28;20044;-70
2023/04/05 06:30:19;;;;;;;6.07;4.10;;;;;;;2.59;39.19;99629.81;5085950;28;20056;-70
2023/04/05 06:32:47;;;;;;;6.85;4.43;;;;;;;2.79;39.29;99671.31;5085993;28;20052;-70
2023/04/05 06:35:14;;;;;;;7.75;4.78;;;;;;;2.77;39.48;99671.34;5085600;28;20051;-71
2023/04/05 06:37:42;;;;;;;6.03;4.53;;;;;;;2.79;39.36;99680.03;5085754;28;20037;-70
2023/04/05 06:40:09;;;;;;;6.65;4.25;;;;;;;2.82;39.31;99687.81;5086078;28;20123;-70
2023/04/05 06:42:36;;;;;;;11.63;4.63;;;;;;;2.84;39.45;99678.19;5085503;28;20247;-70
2023/04/05 06:45:04;;;;;;;7.45;4.03;;;;;;;2.85;39.39;99693.00;5084588;28;20251;-70
2023/04/05 06:47:33;;;;;;;6.95;4.80;;;;;;;2.83;39.61;99692.16;5085200;28;20082;-70
2023/04/05 06:50:01;;;;;;;6.43;4.18;;;;;;;2.83;39.52;99691.31;5085553;28;20169;-70
2023/04/05 06:52:27;;;;;;;8.35;5.25;;;;;;;2.80;39.58;99689.59;5085904;28;20094;-70
2023/04/05 06:54:56;;;;;;;6.93;4.35;;;;;;;1.94;39.61;99571.69;5085764;28;20040;-71
2023/04/05 06:57:22;;;;;;;6.18;3.90;;;;;;;2.55;39.73;99660.41;5085730;28;20114;-70
2023/04/05 06:59:49;;;;;;;7.32;4.93;;;;;;;2.71;39.57;99688.91;5085326;28;20044;-70
2023/04/05 07:02:16;;;;;;;6.38;4.60;;;;;;;2.56;39.65;99663.88;5085207;28;20051;-70
2023/04/05 07:04:43;;;;;;;6.80;4.00;;;;;;;2.76;39.75;99703.63;5085274;28;20099;-70
2023/04/05 07:07:10;;;;;;;5.20;4.05;;;;;;;2.75;39.51;99721.97;5084997;28;20051;-70
2023/04/05 07:09:37;;;;;;;6.40;4.00;;;;;;;1.88;39.72;99550.88;5085435;28;20096;-70
2023/04/05 07:12:06;;;;;;;5.80;3.90;;;;;;;2.71;39.79;99699.38;5085729;28;20028;-70
2023/04/05 07:14:34;;;;;;;6.50;4.57;;;;;;;2.62;39.86;99678.59;5085328;28;20044;-70
2023/04/05 07:17:01;;;;;;;9.15;4.72;;;;;;;2.74;39.74;99692.34;5084963;28;20048;-70
2023/04/05 07:19:27;;;;;;;5.20;3.80;;;;;;;2.73;39.64;99695.84;5085075;28;20033;-70
2023/04/05 07:21:56;;;;;;;6.68;4.32;;;;;;;2.74;39.90;99700.19;5085563;28;20044;-70
2023/04/05 07:24:22;;;;;;;7.63;4.10;;;;;;;2.76;39.72;99694.91;5085185;28;20067;-70
2023/04/05 07:26:49;;;;;;;7.00;4.18;;;;;;;2.78;39.66;99701.84;5085568;28;20046;-70
2023/04/05 07:29:18;;;;;;;7.97;4.65;;;;;;;2.77;39.61;99697.50;5085576;28;20110;-70
2023/04/05 07:31:44;;;;;;;8.27;3.83;;;;;;;2.54;39.75;99652.56;5085900;28;20040;-70
2023/04/05 07:34:11;;;;;;;5.63;4.03;;;;;;;2.83;39.84;99697.41;5085325;28;20062;-70
2023/04/05 07:36:38;;;;;;;7.45;4.50;;;;;;;2.88;39.52;99700.78;5089586;28;20295;-70
2023/04/05 07:39:05;;;;;;;6.47;4.93;;;;;;;2.55;39.56;99620.28;5089398;28;20048;-70
2023/04/05 07:41:34;;;;;;;6.93;4.47;;;;;;;3.02;39.52;99692.69;5089100;28;20121;-71
2023/04/05 07:44:01;;;;;;;5.30;4.10;;;;;;;2.80;39.71;99645.09;5089444;28;20098;-70
2023/04/05 07:46:29;;;;;;;7.15;4.85;;;;;;;2.24;39.53;99546.75;5089757;28;20044;-70
2023/04/05 07:48:57;;;;;;;9.60;4.25;;;;;;;1.76;39.56;99460.47;5089994;28;20055;-70
2023/04/05 07:51:24;;;;;;;6.30;3.53;;;;;;;3.23;39.48;99686.16;5090017;28;20064;-70
2023/04/05 07:53:50;;;;;;;7.30;4.03;;;;;;;3.44;39.38;99683.09;5089414;28;20090;-70
2023/04/05 07:56:17;;;;;;;9.48;4.97;;;;;;;3.90;39.05;99684.69;5089206;28;20040;-70
2023/04/05 07:58:44;;;;;;;7.13;4.32;;;;;;;4.31;38.30;99683.75;5088717;28;20055;-70
2023/04/05 08:01:11;;;;;;;6.18;3.90;;;;;;;4.80;37.82;99679.88;5088306;28;20037;-70
2023/04/05 08:03:39;;;;;;;9.43;4.45;;;;;;;5.20;37.21;99666.53;5088607;28;20040;-71
2023/04/05 08:06:10;;;;;;;5.80;3.80;;;;;;;5.55;36.41;99656.78;5088657;28;20045;-70
2023/04/05 08:08:37;;;;;;;8.77;4.57;;;;;;;5.94;36.19;99665.22;5088197;28;20050;-70
2023/04/05 08:11:04;;;;;;;6.22;4.10;;;;;;;6.28;35.66;99657.94;5088054;28;20114;-70
2023/04/05 08:13:32;;;;;;;7.88;3.55;;;;;;;5.96;35.42;99582.69;5088246;28;20098;-70
2023/04/05 08:16:00;;;;;;;7.13;4.18;;;;;;;6.69;35.04;99653.91;5088402;28;20045;-71
2023/04/05 08:18:27;;;;;;;6.40;4.20;;;;;;;6.91;34.89;99646.16;5087554;28;20319;-71
2023/04/05 08:20:56;;;;;;;5.40;3.53;;;;;;;6.97;34.80;99603.78;5088120;28;20051;-71
2023/04/05 08:23:23;;;;;;;5.38;3.75;;;;;;;7.25;34.50;99606.25;5087328;28;20067;-71
2023/04/05 08:25:50;;;;;;;7.22;4.30;;;;;;;7.64;34.09;99625.00;5088253;28;20200;-71
2023/04/05 08:28:17;;;;;;;6.78;3.58;;;;;;;7.82;33.80;99620.78;5088223;28;20040;-71
2023/04/05 08:30:44;;;;;;;6.47;4.05;;;;;;;8.17;33.82;99622.00;5088361;28;20040;-71
2023/04/05 08:33:10;;;;;;;5.13;3.40;;;;;;;8.47;33.51;99613.72;5086967;28;20311;-71
2023/04/05 08:35:38;;;;;;;6.05;4.55;;;;;;;8.67;33.33;99617.22;5087227;28;20055;-71
2023/04/05 08:38:07;;;;;;;6.97;4.60;;;;;;;8.83;32.92;99624.47;5087464;28;20036;-71
2023/04/05 08:40:41;;;;;;;5.78;3.78;;;;;;;9.00;32.24;99606.09;5087695;28;20108;-71
2023/04/05 08:43:13;;;;;;;6.25;3.85;;;;;;;9.08;32.50;99579.31;5087639;28;20117;-71
2023/04/05 08:45:46;;;;;;;7.57;4.10;;;;;;;9.43;31.23;99596.25;5088059;28;20037;-71
2023/04/05 08:48:13;;;;;;;7.00;4.10;;;;;;;9.39;32.41;99606.09;5088361;28;20244;-71
2023/04/05 08:50:40;;;;;;;5.28;3.70;;;;;;;9.52;32.47;99601.13;5087638;28;20242;-71
2023/04/05 08:53:10;;;;;;;5.75;3.97;;;;;;;9.71;32.30;99598.47;5087812;28;20044;-71
2023/04/05 08:55:37;;;;;;;8.02;4.25;;;;;;;9.85;32.32;99599.50;5087981;28;20052;-71
2023/04/05 08:58:12;;;;;;;5.75;3.88;;;;;;;10.02;31.03;99597.84;5087361;28;20040;-71
2023/04/05 09:00:39;;;;;;;;;;;;;;;10.00;29.58;99587.31;5087644;28;20052;-71
2023/04/05 09:03:07;;;;;;;4.97;3.38;;;;;;;10.16;32.13;99595.38;5087592;28;19917;-71
2023/04/05 09:05:39;;;;;;;5.03;3.50;;;;;;;10.08;31.32;99558.66;5086624;28;20115;-71
2023/04/05 09:08:08;;;;;;;5.20;3.63;;;;;;;10.51;31.77;99588.28;5087376;28;20041;-71
2023/04/05 09:10:35;;;;;;;4.75;3.03;;;;;;;10.52;31.43;99563.50;5086370;28;20040;-71
2023/04/05 09:13:02;;;;;;;5.32;3.45;;;;;;;10.79;31.05;99579.78;5087458;28;20291;-71
2023/04/05 09:15:30;;;;;;;6.25;4.13;;;;;;;10.85;31.19;99582.97;5086914;28;20052;-72
2023/04/05 09:17:57;;;;;;;6.63;4.00;;;;;;;10.86;31.07;99576.75;5087136;28;20040;-72
2023/04/05 09:20:24;;;;;;;6.28;3.72;;;;;;;10.90;30.86;99567.69;5087286;28;20169;-72
2023/04/05 09:22:51;;;;;;;7.13;3.45;;;;;;;10.70;30.81;99525.44;5087288;28;20090;-73
2023/04/05 09:25:38;;;;;;;7.05;4.65;;;;;;;10.66;28.75;99515.06;5085991;28;20040;-72
2023/04/05 09:28:05;;;;;;;7.25;3.78;;;;;;;10.91;30.62;99534.06;5086491;28;20036;-73
2023/04/05 09:30:33;;;;;;;6.10;3.85;;;;;;;11.08;30.69;99557.88;5086910;28;20036;-71
2023/04/05 09:33:00;;;;;;;6.75;3.78;;;;;;;11.01;30.69;99572.41;5086929;28;20043;-72
2023/04/05 09:35:28;;;;;;;8.45;4.78;;;;;;;11.01;30.57;99579.53;5086648;28;20070;-72
2023/04/05 09:37:57;;;;;;;7.15;4.57;;;;;;;10.66;30.34;99545.09;5087166;28;20040;-72
2023/04/05 09:40:24;;;;;;;6.25;3.75;;;;;;;10.52;31.01;99568.81;5086444;28;20037;-72
2023/04/05 09:42:53;;;;;;;5.50;4.13;;;;;;;10.42;30.70;99541.06;5085708;28;20045;-70
2023/04/05 09:45:21;;;;;;;6.30;4.03;;;;;;;10.43;30.89;99580.72;5087269;28;20192;-70
2023/04/05 09:47:55;;;;;;;5.45;3.63;;;;;;;10.04;29.25;99565.06;5086704;28;20051;-71
2023/04/05 09:50:22;;;;;;;8.32;3.95;;;;;;;10.09;31.09;99570.13;5085745;28;20040;-70
2023/04/05 09:52:50;;;;;;;6.50;3.30;;;;;;;10.06;31.10;99543.78;5086739;28;20243;-71
2023/04/05 09:55:26;;;;;;;5.60;3.50;;;;;;;10.25;29.08;99561.31;5086917;28;20075;-71
2023/04/05 09:57:55;;;;;;;4.70;3.50;;;;;;;10.41;30.55;99555.25;5086161;28;20052;-71
2023/04/05 10:00:22;;;;;;;5.05;4.25;;;;;;;10.55;30.85;99542.16;5085605;28;20061;-72
2023/04/05 10:02:53;;;;;;;5.90;3.55;;;;;;;10.54;29.78;99546.59;5086657;28;20070;-71
2023/04/05 10:05:24;;;;;;;7.97;5.63;;;;;;;10.37;29.99;99546.59;5087019;28;20110;-72
2023/04/05 10:07:51;;;;;;;6.47;3.85;;;;;;;10.34;30.71;99541.47;5086575;28;20036;-71
2023/04/05 10:10:18;;;;;;;7.15;4.53;;;;;;;10.34;30.61;99548.56;5086341;28;20106;-72
2023/04/05 10:12:46;;;;;;;6.65;3.50;;;;;;;10.31;30.49;99548.72;5085193;28;20036;-72
2023/04/05 10:15:17;;;;;;;6.25;3.90;;;;;;;10.27;30.26;99534.75;5086481;28;20326;-72
2023/04/05 10:17:52;;;;;;;7.57;4.75;;;;;;;10.18;29.35;99530.78;5086082;28;20044;-71
2023/04/05 10:20:19;;;;;;;6.28;3.58;;;;;;;9.92;30.35;99497.69;5086324;28;20072;-72
2023/04/05 10:22:59;;;;;;;5.53;3.50;;;;;;;10.16;29.29;99534.44;5085955;28;20098;-72
2023/04/05 10:25:40;;;;;;;6.28;4.38;;;;;;;10.18;29.13;99535.22;5086269;28;20040;-71
2023/04/05 10:28:12;;;;;;;6.45;4.10;;;;;;;10.26;29.29;99525.97;5085570;28;20284;-72
2023/04/05 10:30:46;;;;;;;5.72;4.00;;;;;;;10.46;29.19;99513.47;5084956;28;20304;-71
2023/04/05 10:33:19;;;;;;;5.70;3.60;;;;;;;10.58;28.34;99513.69;5086185;28;20063;-70
2023/04/05 10:36:00;;;;;;;5.47;3.67;;;;;;;10.68;27.82;99513.19;5085793;28;20318;-70
2023/04/05 10:38:28;;;;;;;6.00;3.72;;;;;;;10.69;29.01;99513.13;5086092;28;20100;-71
2023/04/05 10:41:00;;;;;;;4.97;3.90;;;;;;;10.79;28.87;99500.25;5085692;28;20292;-72
2023/04/05 10:43:29;;;;;;;4.40;3.63;;;;;;;10.93;28.96;99508.34;5085484;28;20040;-71
2023/04/05 10:45:59;;;;;;;5.20;3.90;;;;;;;11.03;29.01;99511.34;5084588;28;20050;-72
2023/04/05 10:48:36;;;;;;;6.18;3.75;;;;;;;10.99;28.02;99521.25;5085428;28;20322;-71
2023/04/05 10:51:03;;;;;;;6.82;4.53;;;;;;;10.82;29.33;99513.34;5086045;28;20045;-72
2023/04/05 10:53:31;;;;;;;5.20;3.47;;;;;;;10.62;29.14;99511.72;5085791;28;20032;-71
2023/04/05 10:56:00;;;;;;;8.00;3.38;;;;;;;10.45;29.67;99512.63;5085437;28;20044;-71
2023/04/05 10:58:29;;;;;;;6.43;4.03;;;;;;;10.11;29.86;99472.91;5085717;28;20033;-71
2023/04/05 11:00:58;;;;;;;5.30;3.90;;;;;;;9.60;29.85;99440.19;5084587;28;20048;-71
2023/04/05 11:03:47;;;;;;;7.88;3.70;;;;;;;9.94;28.88;99513.50;5085474;28;20103;-71
2023/04/05 11:06:22;;;;;;;4.70;3.80;;;;;;;9.89;29.06;99510.22;5084970;28;20085;-71
2023/04/05 11:08:51;;;;;;;8.20;4.00;;;;;;;9.89;30.17;99505.78;5084531;28;20082;-71
2023/04/05 11:11:18;;;;;;;5.43;3.42;;;;;;;9.83;30.22;99476.09;5085696;28;20048;-71
2023/04/05 11:13:49;;;;;;;6.85;4.00;;;;;;;10.04;29.56;99498.00;5084407;28;20120;-71
2023/04/05 11:16:17;;;;;;;5.43;3.58;;;;;;;9.97;29.76;99499.25;5085953;28;20048;-71
2023/04/05 11:18:46;;;;;;;5.78;3.92;;;;;;;9.79;30.06;99499.22;5085418;28;20055;-71
2023/04/05 11:21:21;;;;;;;5.30;3.85;;;;;;;9.69;29.16;99492.66;5085566;28;20044;-71
2023/04/05 11:24:01;;;;;;;;;;;;;;;9.57;28.72;99499.44;5085102;28;20048;-71
2023/04/05 11:26:31;;;;;;;4.53;3.35;;;;;;;9.53;30.18;99500.50;5085941;28;20227;-72
2023/04/05 11:28:58;;;;;;;4.65;3.03;;;;;;;9.58;30.59;99500.28;5085513;28;20048;-70
2023/04/05 11:31:26;;;;;;;5.05;3.40;;;;;;;9.26;30.22;99443.63;5085460;28;20092;-70
2023/04/05 11:33:57;;;;;;;5.63;3.47;;;;;;;9.54;30.08;99491.63;5086079;28;20036;-70
2023/04/05 11:36:32;;;;;;;6.68;3.38;;;;;;;9.51;29.10;99486.50;5084830;28;20052;-69
2023/04/05 11:39:24;;;;;;;5.07;3.10;;;;;;;9.59;28.68;99496.69;5085642;28;20062;-70
2023/04/05 11:42:01;;;;;;;7.00;3.67;;;;;;;9.75;29.77;99484.44;5085133;28;20055;-70
2023/04/05 11:44:30;;;;;;;5.13;2.92;;;;;;;9.98;29.37;99466.53;5084704;28;20055;-70
2023/04/05 11:46:58;;;;;;;5.07;3.13;;;;;;;9.99;28.97;99471.75;5084365;28;20266;-70
2023/04/05 11:49:25;;;;;;;3.80;2.63;;;;;;;9.91;28.89;99476.56;5084952;28;20055;-70